sensor_id;sensor_type;location;lat;lon;timestamp;pressure;altitude;pressure_sealevel;temperature;humidity
57442;BME280;43284;47.042;15.498;2023-06-10T00:01:12;96764.88;;;13.88;100.00
57442;BME280;43284;47.042;15.498;2023-06-10T00:03:38;96762.78;;;13.80;100.00
57442;BME280;43284;47.042;15.498;2023-06-10T00:06:04;96767.41;;;13.77;100.00
57442;BME280;43284;47.042;15.498;2023-06-10T00:08:30;96764.03;;;13.75;100.00
57442;BME280;43284;47.042;15.498;2023-06-10T00:10:56;96759.91;;;13.71;100.00
57442;BME280;43284;47.042;15.498;2023-06-10T00:13:22;96766.75;;;13.60;100.00
57442;BME280;43284;47.042;15.498;2023-06-10T00:15:47;96758.34;;;13.55;100.00
57442;BME280;43284;47.042;15.498;2023-06-10T00:18:13;96759.38;;;13.53;100.00
57442;BME280;43284;47.042;15.498;2023-06-10T00:20:39;96767.91;;;13.56;100.00
57442;BME280;43284;47.042;15.498;2023-06-10T00:23:05;96761.50;;;13.60;100.00
57442;BME280;43284;47.042;15.498;2023-06-10T00:25:33;96765.38;;;13.55;100.00
57442;BME280;43284;47.042;15.498;2023-06-10T00:27:59;96765.16;;;13.45;100.00
57442;BME280;43284;47.042;15.498;2023-06-10T00:30:24;96758.44;;;13.41;100.00
57442;BME280;43284;47.042;15.498;2023-06-10T00:32:50;96754.97;;;13.41;100.00
57442;BME280;43284;47.042;15.498;2023-06-10T00:35:15;96754.09;;;13.40;100.00
57442;BME280;43284;47.042;15.498;2023-06-10T00:37:41;96760.22;;;13.41;100.00
57442;BME280;43284;47.042;15.498;2023-06-10T00:40:07;96760.41;;;13.37;100.00
57442;BME280;43284;47.042;15.498;2023-06-10T00:42:36;96754.72;;;13.31;100.00
57442;BME280;43284;47.042;15.498;2023-06-10T00:45:01;96752.59;;;13.23;100.00
57442;BME280;43284;47.042;15.498;2023-06-10T00:47:27;96746.69;;;13.19;100.00
57442;BME280;43284;47.042;15.498;2023-06-10T00:49:54;96749.72;;;13.13;100.00
57442;BME280;43284;47.042;15.498;2023-06-10T00:52:22;96746.25;;;13.13;100.00
57442;BME280;43284;47.042;15.498;2023-06-10T00:54:48;96739.22;;;13.13;100.00
57442;BME280;43284;47.042;15.498;2023-06-10T00:57:13;96739.13;;;13.15;100.00
57442;BME280;43284;47.042;15.498;2023-06-10T00:59:40;96746.78;;;13.18;100.00
57442;BME280;43284;47.042;15.498;2023-06-10T01:02:06;96743.22;;;13.19;100.00
57442;BME280;43284;47.042;15.498;2023-06-10T01:04:33;96749.41;;;13.18;100.00
57442;BME280;43284;47.042;15.498;2023-06-10T01:14:50;96742.66;;;13.01;100.00
57442;BME280;43284;47.042;15.498;2023-06-10T01:17:17;96741.03;;;12.98;100.00
57442;BME280;43284;47.042;15.498;2023-06-10T01:19:44;96747.91;;;13.01;100.00
57442;BME280;43284;47.042;15.498;2023-06-10T01:22:10;96751.44;;;13.00;100.00
57442;BME280;43284;47.042;15.498;2023-06-10T01:24:37;96747.47;;;13.07;100.00
57442;BME280;43284;47.042;15.498;2023-06-10T01:27:13;96744.13;;;13.05;100.00
57442;BME280;43284;47.042;15.498;2023-06-10T01:29:45;96747.69;;;13.04;100.00
57442;BME280;43284;47.042;15.498;2023-06-10T01:34:42;96757.31;;;12.91;100.00
57442;BME280;43284;47.042;15.498;2023-06-10T01:37:09;96757.59;;;12.86;100.00
57442;BME280;43284;47.042;15.498;2023-06-10T01:39:37;96756.03;;;12.84;100.00
57442;BME280;43284;47.042;15.498;2023-06-10T01:42:04;96757.16;;;12.80;100.00
57442;BME280;43284;47.042;15.498;2023-06-10T01:44:30;96762.50;;;12.78;100.00
57442;BME280;43284;47.042;15.498;2023-06-10T01:46:55;96758.94;;;12.79;100.00
57442;BME280;43284;47.042;15.498;2023-06-10T01:49:21;96761.66;;;12.77;100.00
57442;BME280;43284;47.042;15.498;2023-06-10T01:51:49;96752.19;;;12.75;100.00
57442;BME280;43284;47.042;15.498;2023-06-10T01:54:14;96757.53;;;12.73;100.00
57442;BME280;43284;47.042;15.498;2023-06-10T01:56:40;96757.00;;;12.68;100.00
57442;BME280;43284;47.042;15.498;2023-06-10T01:59:05;96758.31;;;12.61;100.00
57442;BME280;43284;47.042;15.498;2023-06-10T02:01:31;96757.25;;;12.64;100.00
57442;BME280;43284;47.042;15.498;2023-06-10T02:03:56;96759.25;;;12.60;100.00
57442;BME280;43284;47.042;15.498;2023-06-10T02:06:22;96759.34;;;12.58;100.00
57442;BME280;43284;47.042;15.498;2023-06-10T02:08:47;96761.03;;;12.60;100.00
57442;BME280;43284;47.042;15.498;2023-06-10T02:11:13;96757.69;;;12.57;100.00
57442;BME280;43284;47.042;15.498;2023-06-10T02:13:38;96759.44;;;12.57;100.00
57442;BME280;43284;47.042;15.498;2023-06-10T02:16:04;96770.03;;;12.55;100.00
57442;BME280;43284;47.042;15.498;2023-06-10T02:18:31;96763.09;;;12.54;100.00
57442;BME280;43284;47.042;15.498;2023-06-10T02:20:56;96762.34;;;12.52;100.00
57442;BME280;43284;47.042;15.498;2023-06-10T02:23:22;96761.59;;;12.50;100.00
57442;BME280;43284;47.042;15.498;2023-06-10T02:25:47;96766.66;;;12.53;100.00
57442;BME280;43284;47.042;15.498;2023-06-10T02:28:13;96767.50;;;12.54;100.00
57442;BME280;43284;47.042;15.498;2023-06-10T02:30:41;96775.91;;;12.59;100.00
57442;BME280;43284;47.042;15.498;2023-06-10T02:33:07;96771.13;;;12.66;100.00
57442;BME280;43284;47.042;15.498;2023-06-10T02:35:37;96777.47;;;12.76;100.00
57442;BME280;43284;47.042;15.498;2023-06-10T02:38:03;96766.91;;;12.77;100.00
57442;BME280;43284;47.042;15.498;2023-06-10T02:40:29;96771.00;;;12.82;100.00
57442;BME280;43284;47.042;15.498;2023-06-10T02:42:55;96773.44;;;12.85;100.00
57442;BME280;43284;47.042;15.498;2023-06-10T02:45:20;96781.59;;;12.80;100.00
57442;BME280;43284;47.042;15.498;2023-06-10T02:47:45;96774.03;;;12.75;100.00
57442;BME280;43284;47.042;15.498;2023-06-10T02:50:11;96771.41;;;12.75;100.00
57442;BME280;43284;47.042;15.498;2023-06-10T02:52:37;96775.81;;;12.75;100.00
57442;BME280;43284;47.042;15.498;2023-06-10T02:55:02;96784.50;;;12.75;100.00
57442;BME280;43284;47.042;15.498;2023-06-10T02:57:28;96791.13;;;12.81;100.00
57442;BME280;43284;47.042;15.498;2023-06-10T02:59:53;96790.00;;;12.85;100.00
57442;BME280;43284;47.042;15.498;2023-06-10T03:02:19;96790.59;;;12.76;100.00
57442;BME280;43284;47.042;15.498;2023-06-10T03:04:45;96795.84;;;12.76;100.00
57442;BME280;43284;47.042;15.498;2023-06-10T03:07:10;96797.81;;;12.72;100.00
57442;BME280;43284;47.042;15.498;2023-06-10T03:09:36;96800.72;;;12.68;100.00
57442;BME280;43284;47.042;15.498;2023-06-10T03:12:02;96803.53;;;12.65;100.00
57442;BME280;43284;47.042;15.498;2023-06-10T03:14:28;96810.66;;;12.63;100.00
57442;BME280;43284;47.042;15.498;2023-06-10T03:16:54;96802.78;;;12.63;100.00
57442;BME280;43284;47.042;15.498;2023-06-10T03:19:19;96800.16;;;12.63;100.00
57442;BME280;43284;47.042;15.498;2023-06-10T03:21:50;96799.44;;;12.61;100.00
57442;BME280;43284;47.042;15.498;2023-06-10T03:24:20;96804.66;;;12.61;100.00
57442;BME280;43284;47.042;15.498;2023-06-10T03:26:45;96804.28;;;12.67;100.00
57442;BME280;43284;47.042;15.498;2023-06-10T03:29:11;96820.41;;;12.75;100.00
57442;BME280;43284;47.042;15.498;2023-06-10T03:31:36;96814.09;;;12.77;100.00
57442;BME280;43284;47.042;15.498;2023-06-10T03:34:04;96817.88;;;12.59;100.00
57442;BME280;43284;47.042;15.498;2023-06-10T03:36:29;96822.94;;;12.62;100.00
57442;BME280;43284;47.042;15.498;2023-06-10T03:38:55;96821.91;;;12.65;100.00
57442;BME280;43284;47.042;15.498;2023-06-10T03:41:22;96825.06;;;12.70;100.00
57442;BME280;43284;47.042;15.498;2023-06-10T03:43:48;96822.91;;;12.76;100.00
57442;BME280;43284;47.042;15.498;2023-06-10T03:46:13;96817.38;;;12.81;100.00
57442;BME280;43284;47.042;15.498;2023-06-10T03:48:39;96817.38;;;12.81;100.00
57442;BME280;43284;47.042;15.498;2023-06-10T03:51:05;96820.84;;;12.82;100.00
57442;BME280;43284;47.042;15.498;2023-06-10T03:53:30;96821.78;;;12.81;100.00
57442;BME280;43284;47.042;15.498;2023-06-10T03:55:56;96824.41;;;12.81;100.00
57442;BME280;43284;47.042;15.498;2023-06-10T03:58:22;96826.84;;;12.84;100.00
57442;BME280;43284;47.042;15.498;2023-06-10T04:00:48;96824.84;;;12.87;100.00
57442;BME280;43284;47.042;15.498;2023-06-10T04:03:14;96829.63;;;12.95;100.00
57442;BME280;43284;47.042;15.498;2023-06-10T04:05:41;96824.16;;;12.98;100.00
57442;BME280;43284;47.042;15.498;2023-06-10T04:08:07;96824.00;;;13.01;100.00
57442;BME280;43284;47.042;15.498;2023-06-10T04:10:33;96831.22;;;12.97;100.00
57442;BME280;43284;47.042;15.498;2023-06-10T04:12:58;96830.16;;;13.00;100.00
57442;BME280;43284;47.042;15.498;2023-06-10T04:15:25;96826.41;;;13.04;100.00
57442;BME280;43284;47.042;15.498;2023-06-10T04:17:50;96823.50;;;13.09;100.00
57442;BME280;43284;47.042;15.498;2023-06-10T04:20:16;96831.06;;;13.13;100.00
57442;BME280;43284;47.042;15.498;2023-06-10T04:22:42;96831.50;;;13.20;100.00
57442;BME280;43284;47.042;15.498;2023-06-10T04:25:09;96833.75;;;13.26;100.00
57442;BME280;43284;47.042;15.498;2023-06-10T04:27:34;96832.72;;;13.29;100.00
57442;BME280;43284;47.042;15.498;2023-06-10T04:30:00;96833.56;;;13.29;100.00
57442;BME280;43284;47.042;15.498;2023-06-10T04:32:25;96826.44;;;13.31;100.00
57442;BME280;43284;47.042;15.498;2023-06-10T04:34:51;96825.28;;;13.35;100.00
57442;BME280;43284;47.042;15.498;2023-06-10T04:37:17;96827.63;;;13.40;100.00
57442;BME280;43284;47.042;15.498;2023-06-10T04:39:43;96823.84;;;13.44;100.00
57442;BME280;43284;47.042;15.498;2023-06-10T04:42:09;96828.72;;;13.50;100.00
57442;BME280;43284;47.042;15.498;2023-06-10T04:44:34;96831.78;;;13.57;100.00
57442;BME280;43284;47.042;15.498;2023-06-10T04:47:00;96828.75;;;13.63;100.00
57442;BME280;43284;47.042;15.498;2023-06-10T04:49:26;96830.00;;;13.70;100.00
57442;BME280;43284;47.042;15.498;2023-06-10T04:51:51;96832.03;;;13.79;100.00
57442;BME280;43284;47.042;15.498;2023-06-10T04:54:17;96824.47;;;13.88;100.00
57442;BME280;43284;47.042;15.498;2023-06-10T04:56:42;96830.16;;;13.94;100.00
57442;BME280;43284;47.042;15.498;2023-06-10T04:59:08;96837.53;;;14.02;100.00
57442;BME280;43284;47.042;15.498;2023-06-10T05:01:33;96837.13;;;14.08;100.00
57442;BME280;43284;47.042;15.498;2023-06-10T05:03:59;96831.34;;;14.16;100.00
57442;BME280;43284;47.042;15.498;2023-06-10T05:06:24;96830.91;;;14.22;100.00
57442;BME280;43284;47.042;15.498;2023-06-10T05:08:50;96829.63;;;14.28;100.00
57442;BME280;43284;47.042;15.498;2023-06-10T05:11:15;96832.72;;;14.34;100.00
57442;BME280;43284;47.042;15.498;2023-06-10T05:13:41;96837.75;;;14.37;100.00
57442;BME280;43284;47.042;15.498;2023-06-10T05:16:08;96831.94;;;14.45;100.00
57442;BME280;43284;47.042;15.498;2023-06-10T05:18:34;96836.69;;;14.53;100.00
57442;BME280;43284;47.042;15.498;2023-06-10T05:21:01;96840.25;;;14.65;100.00
57442;BME280;43284;47.042;15.498;2023-06-10T05:23:27;96836.16;;;14.73;100.00
57442;BME280;43284;47.042;15.498;2023-06-10T05:25:54;96838.25;;;14.81;100.00
57442;BME280;43284;47.042;15.498;2023-06-10T05:28:19;96824.66;;;14.87;100.00
57442;BME280;43284;47.042;15.498;2023-06-10T05:30:45;96834.63;;;14.95;100.00
57442;BME280;43284;47.042;15.498;2023-06-10T05:33:11;96838.63;;;15.00;100.00
57442;BME280;43284;47.042;15.498;2023-06-10T05:35:36;96834.69;;;15.06;100.00
57442;BME280;43284;47.042;15.498;2023-06-10T05:38:02;96835.31;;;15.10;100.00
57442;BME280;43284;47.042;15.498;2023-06-10T05:40:28;96836.78;;;15.14;100.00
57442;BME280;43284;47.042;15.498;2023-06-10T05:42:53;96849.53;;;15.20;100.00
57442;BME280;43284;47.042;15.498;2023-06-10T05:45:18;96836.94;;;15.23;100.00
57442;BME280;43284;47.042;15.498;2023-06-10T05:47:44;96847.03;;;15.30;100.00
57442;BME280;43284;47.042;15.498;2023-06-10T05:50:10;96840.50;;;15.35;100.00
57442;BME280;43284;47.042;15.498;2023-06-10T05:52:36;96847.09;;;15.41;100.00
57442;BME280;43284;47.042;15.498;2023-06-10T05:55:03;96849.28;;;15.47;100.00
57442;BME280;43284;47.042;15.498;2023-06-10T05:57:28;96848.22;;;15.50;100.00
57442;BME280;43284;47.042;15.498;2023-06-10T05:59:54;96855.78;;;15.54;100.00
57442;BME280;43284;47.042;15.498;2023-06-10T06:02:19;96849.34;;;15.58;100.00
57442;BME280;43284;47.042;15.498;2023-06-10T06:04:45;96851.63;;;15.63;100.00
57442;BME280;43284;47.042;15.498;2023-06-10T06:07:10;96856.56;;;15.68;100.00
57442;BME280;43284;47.042;15.498;2023-06-10T06:09:36;96849.09;;;15.74;100.00
57442;BME280;43284;47.042;15.498;2023-06-10T06:12:01;96843.47;;;15.79;100.00
57442;BME280;43284;47.042;15.498;2023-06-10T06:14:30;96852.59;;;15.86;100.00
57442;BME280;43284;47.042;15.498;2023-06-10T06:16:56;96858.25;;;15.93;100.00
57442;BME280;43284;47.042;15.498;2023-06-10T06:19:21;96849.16;;;15.97;100.00
57442;BME280;43284;47.042;15.498;2023-06-10T06:21:47;96855.63;;;16.04;100.00
57442;BME280;43284;47.042;15.498;2023-06-10T06:24:14;96855.28;;;16.09;100.00
57442;BME280;43284;47.042;15.498;2023-06-10T06:26:40;96844.03;;;16.18;100.00
57442;BME280;43284;47.042;15.498;2023-06-10T06:29:06;96845.28;;;16.25;100.00
57442;BME280;43284;47.042;15.498;2023-06-10T06:31:31;96851.03;;;16.30;100.00
57442;BME280;43284;47.042;15.498;2023-06-10T06:33:57;96849.00;;;16.34;100.00
57442;BME280;43284;47.042;15.498;2023-06-10T06:36:22;96847.56;;;16.41;100.00
57442;BME280;43284;47.042;15.498;2023-06-10T06:38:48;96858.38;;;16.49;100.00
57442;BME280;43284;47.042;15.498;2023-06-10T06:41:13;96852.22;;;16.48;100.00
57442;BME280;43284;47.042;15.498;2023-06-10T06:43:38;96851.91;;;16.53;100.00
57442;BME280;43284;47.042;15.498;2023-06-10T06:46:05;96854.28;;;16.56;100.00
57442;BME280;43284;47.042;15.498;2023-06-10T06:48:30;96848.28;;;16.65;100.00
57442;BME280;43284;47.042;15.498;2023-06-10T06:50:56;96849.50;;;16.73;100.00
57442;BME280;43284;47.042;15.498;2023-06-10T06:53:23;96841.00;;;16.80;100.00
57442;BME280;43284;47.042;15.498;2023-06-10T06:55:48;96843.28;;;16.85;100.00
57442;BME280;43284;47.042;15.498;2023-06-10T06:58:14;96838.22;;;16.93;100.00
57442;BME280;43284;47.042;15.498;2023-06-10T07:00:39;96836.31;;;16.95;100.00
57442;BME280;43284;47.042;15.498;2023-06-10T07:03:05;96840.03;;;17.04;100.00
57442;BME280;43284;47.042;15.498;2023-06-10T07:05:30;96840.75;;;17.06;100.00
57442;BME280;43284;47.042;15.498;2023-06-10T07:07:56;96844.66;;;17.12;100.00
57442;BME280;43284;47.042;15.498;2023-06-10T07:10:22;96847.66;;;17.18;100.00
57442;BME280;43284;47.042;15.498;2023-06-10T07:12:48;96846.09;;;17.27;100.00
57442;BME280;43284;47.042;15.498;2023-06-10T07:15:14;96844.88;;;17.31;100.00
57442;BME280;43284;47.042;15.498;2023-06-10T07:17:40;96844.13;;;17.40;100.00
57442;BME280;43284;47.042;15.498;2023-06-10T07:20:07;96849.63;;;17.48;100.00
57442;BME280;43284;47.042;15.498;2023-06-10T07:22:33;96845.66;;;17.54;100.00
57442;BME280;43284;47.042;15.498;2023-06-10T07:25:00;96847.59;;;17.52;99.66
57442;BME280;43284;47.042;15.498;2023-06-10T07:27:25;96844.44;;;17.58;99.12
57442;BME280;43284;47.042;15.498;2023-06-10T07:29:51;96841.41;;;17.63;98.77
57442;BME280;43284;47.042;15.498;2023-06-10T07:32:19;96838.13;;;17.70;99.30
57442;BME280;43284;47.042;15.498;2023-06-10T07:34:50;96844.00;;;17.74;98.69
57442;BME280;43284;47.042;15.498;2023-06-10T07:37:16;96849.31;;;17.74;96.66
57442;BME280;43284;47.042;15.498;2023-06-10T07:39:43;96844.34;;;17.81;97.68
57442;BME280;43284;47.042;15.498;2023-06-10T07:42:09;96849.28;;;17.85;96.60
57442;BME280;43284;47.042;15.498;2023-06-10T07:44:36;96846.97;;;17.92;96.19
57442;BME280;43284;47.042;15.498;2023-06-10T07:47:03;96848.81;;;18.01;96.09
57442;BME280;43284;47.042;15.498;2023-06-10T07:49:28;96848.44;;;18.06;94.70
57442;BME280;43284;47.042;15.498;2023-06-10T07:51:55;96850.00;;;18.08;92.97
57442;BME280;43284;47.042;15.498;2023-06-10T07:54:21;96847.53;;;18.17;93.87
57442;BME280;43284;47.042;15.498;2023-06-10T07:56:47;96847.41;;;18.18;93.46
57442;BME280;43284;47.042;15.498;2023-06-10T07:59:14;96849.66;;;18.23;92.97
57442;BME280;43284;47.042;15.498;2023-06-10T08:01:40;96841.09;;;18.30;93.03
57442;BME280;43284;47.042;15.498;2023-06-10T08:04:07;96837.78;;;18.38;92.37
57442;BME280;43284;47.042;15.498;2023-06-10T08:06:34;96840.81;;;18.33;88.88
57442;BME280;43284;47.042;15.498;2023-06-10T08:09:03;96843.25;;;18.46;89.65
57442;BME280;43284;47.042;15.498;2023-06-10T08:11:29;96839.94;;;18.54;89.53
57442;BME280;43284;47.042;15.498;2023-06-10T08:13:55;96840.75;;;18.45;86.50
57442;BME280;43284;47.042;15.498;2023-06-10T08:16:21;96833.78;;;18.44;84.80
57442;BME280;43284;47.042;15.498;2023-06-10T08:18:47;96827.06;;;18.61;87.55
57442;BME280;43284;47.042;15.498;2023-06-10T08:21:12;96835.31;;;18.77;89.81
57442;BME280;43284;47.042;15.498;2023-06-10T08:23:38;96839.53;;;18.80;87.39
57442;BME280;43284;47.042;15.498;2023-06-10T08:26:04;96844.44;;;18.84;86.63
57442;BME280;43284;47.042;15.498;2023-06-10T08:28:31;96837.25;;;18.96;87.61
57442;BME280;43284;47.042;15.498;2023-06-10T08:30:57;96842.13;;;19.01;84.06
57442;BME280;43284;47.042;15.498;2023-06-10T08:33:23;96844.25;;;19.07;83.60
57442;BME280;43284;47.042;15.498;2023-06-10T08:35:49;96843.38;;;19.06;82.13
57442;BME280;43284;47.042;15.498;2023-06-10T08:38:15;96843.56;;;19.14;84.31
57442;BME280;43284;47.042;15.498;2023-06-10T08:40:42;96846.22;;;19.14;83.94
57442;BME280;43284;47.042;15.498;2023-06-10T08:43:17;96844.13;;;19.18;84.57
57442;BME280;43284;47.042;15.498;2023-06-10T08:45:45;96843.00;;;19.21;83.42
57442;BME280;43284;47.042;15.498;2023-06-10T08:48:14;96841.19;;;19.21;84.14
57442;BME280;43284;47.042;15.498;2023-06-10T08:50:42;96844.28;;;19.26;82.24
57442;BME280;43284;47.042;15.498;2023-06-10T08:53:13;96848.78;;;19.35;82.66
57442;BME280;43284;47.042;15.498;2023-06-10T08:55:46;96848.78;;;19.45;83.84
57442;BME280;43284;47.042;15.498;2023-06-10T08:58:17;96840.81;;;19.35;81.98
57442;BME280;43284;47.042;15.498;2023-06-10T09:00:44;96838.28;;;19.44;80.80
57442;BME280;43284;47.042;15.498;2023-06-10T09:03:12;96846.41;;;19.52;80.40
57442;BME280;43284;47.042;15.498;2023-06-10T09:05:39;96838.31;;;19.53;80.38
57442;BME280;43284;47.042;15.498;2023-06-10T09:08:07;96835.66;;;19.63;80.82
57442;BME280;43284;47.042;15.498;2023-06-10T09:10:34;96832.06;;;19.74;81.36
57442;BME280;43284;47.042;15.498;2023-06-10T09:13:01;96840.59;;;19.78;80.70
57442;BME280;43284;47.042;15.498;2023-06-10T09:15:27;96843.22;;;19.87;82.38
57442;BME280;43284;47.042;15.498;2023-06-10T09:17:52;96845.50;;;19.92;82.48
57442;BME280;43284;47.042;15.498;2023-06-10T09:20:18;96834.84;;;20.02;82.59
57442;BME280;43284;47.042;15.498;2023-06-10T09:22:45;96836.94;;;20.08;82.64
57442;BME280;43284;47.042;15.498;2023-06-10T09:25:12;96828.28;;;20.06;80.38
57442;BME280;43284;47.042;15.498;2023-06-10T09:27:46;96838.47;;;20.10;81.87
57442;BME280;43284;47.042;15.498;2023-06-10T09:30:32;96831.34;;;20.11;82.24
57442;BME280;43284;47.042;15.498;2023-06-10T09:33:01;96834.31;;;20.08;81.87
57442;BME280;43284;47.042;15.498;2023-06-10T09:35:29;96829.13;;;20.06;80.60
57442;BME280;43284;47.042;15.498;2023-06-10T09:37:58;96828.59;;;19.93;81.23
57442;BME280;43284;47.042;15.498;2023-06-10T09:40:24;96830.53;;;20.10;83.56
57442;BME280;43284;47.042;15.498;2023-06-10T09:42:56;96826.03;;;20.21;82.46
57442;BME280;43284;47.042;15.498;2023-06-10T09:45:23;96825.75;;;20.24;80.60
57442;BME280;43284;47.042;15.498;2023-06-10T09:47:53;96826.88;;;20.21;79.40
57442;BME280;43284;47.042;15.498;2023-06-10T09:50:19;96830.09;;;20.25;77.79
57442;BME280;43284;47.042;15.498;2023-06-10T09:52:46;96820.81;;;20.29;81.17
57442;BME280;43284;47.042;15.498;2023-06-10T09:55:14;96822.91;;;20.35;80.57
57442;BME280;43284;47.042;15.498;2023-06-10T09:57:40;96828.22;;;20.35;77.27
57442;BME280;43284;47.042;15.498;2023-06-10T10:00:10;96820.50;;;20.51;79.36
57442;BME280;43284;47.042;15.498;2023-06-10T10:02:47;96816.59;;;20.55;79.57
57442;BME280;43284;47.042;15.498;2023-06-10T10:05:15;96819.22;;;20.65;77.74
57442;BME280;43284;47.042;15.498;2023-06-10T10:07:45;96818.34;;;20.74;78.08
57442;BME280;43284;47.042;15.498;2023-06-10T10:10:13;96814.78;;;20.84;77.94
57442;BME280;43284;47.042;15.498;2023-06-10T10:12:40;96808.66;;;20.83;77.68
57442;BME280;43284;47.042;15.498;2023-06-10T10:15:08;96807.44;;;20.77;76.44
57442;BME280;43284;47.042;15.498;2023-06-10T10:17:42;96815.09;;;20.81;75.95
57442;BME280;43284;47.042;15.498;2023-06-10T10:20:13;96806.25;;;20.90;77.00
57442;BME280;43284;47.042;15.498;2023-06-10T10:22:43;96806.31;;;20.80;73.75
57442;BME280;43284;47.042;15.498;2023-06-10T10:25:15;96805.03;;;20.84;74.24
57442;BME280;43284;47.042;15.498;2023-06-10T10:27:51;96803.91;;;20.77;74.40
57442;BME280;43284;47.042;15.498;2023-06-10T10:30:17;96800.84;;;20.82;75.94
57442;BME280;43284;47.042;15.498;2023-06-10T10:33:05;96797.91;;;21.03;75.09
57442;BME280;43284;47.042;15.498;2023-06-10T10:35:34;96796.44;;;21.18;73.79
57442;BME280;43284;47.042;15.498;2023-06-10T10:38:00;96791.66;;;21.22;74.78
57442;BME280;43284;47.042;15.498;2023-06-10T10:40:28;96795.75;;;21.44;75.59
57442;BME280;43284;47.042;15.498;2023-06-10T10:42:56;96786.94;;;21.43;69.64
57442;BME280;43284;47.042;15.498;2023-06-10T10:45:22;96793.84;;;21.54;72.80
57442;BME280;43284;47.042;15.498;2023-06-10T10:47:53;96786.91;;;21.61;71.24
57442;BME280;43284;47.042;15.498;2023-06-10T10:50:21;96782.19;;;21.73;69.75
57442;BME280;43284;47.042;15.498;2023-06-10T10:53:04;96781.13;;;21.84;68.87
57442;BME280;43284;47.042;15.498;2023-06-10T10:55:31;96779.81;;;21.88;70.49
57442;BME280;43284;47.042;15.498;2023-06-10T10:58:07;96779.41;;;21.56;66.83
57442;BME280;43284;47.042;15.498;2023-06-10T11:00:35;96777.94;;;21.62;67.80
57442;BME280;43284;47.042;15.498;2023-06-10T11:03:06;96779.94;;;21.78;68.56
57442;BME280;43284;47.042;15.498;2023-06-10T11:05:43;96776.44;;;22.04;72.03
57442;BME280;43284;47.042;15.498;2023-06-10T11:11:21;96765.34;;;22.34;68.37
57442;BME280;43284;47.042;15.498;2023-06-10T11:14:17;96758.44;;;22.50;68.44
57442;BME280;43284;47.042;15.498;2023-06-10T11:16:51;96757.16;;;22.62;69.71
57442;BME280;43284;47.042;15.498;2023-06-10T11:19:35;96760.38;;;22.74;67.35
57442;BME280;43284;47.042;15.498;2023-06-10T11:22:03;96746.41;;;22.80;67.63
57442;BME280;43284;47.042;15.498;2023-06-10T11:24:30;96750.94;;;22.88;65.74
57442;BME280;43284;47.042;15.498;2023-06-10T11:27:23;96745.28;;;22.91;65.10
57442;BME280;43284;47.042;15.498;2023-06-10T11:30:21;96742.75;;;22.81;64.65
57442;BME280;43284;47.042;15.498;2023-06-10T11:32:51;96745.09;;;22.84;66.34
57442;BME280;43284;47.042;15.498;2023-06-10T11:35:19;96742.13;;;22.95;66.70
57442;BME280;43284;47.042;15.498;2023-06-10T11:37:47;96745.56;;;22.79;62.51
57442;BME280;43284;47.042;15.498;2023-06-10T11:40:14;96739.16;;;22.56;62.87
57442;BME280;43284;47.042;15.498;2023-06-10T11:42:42;96737.50;;;22.55;62.15
57442;BME280;43284;47.042;15.498;2023-06-10T11:45:09;96731.38;;;22.71;65.83
57442;BME280;43284;47.042;15.498;2023-06-10T11:47:35;96729.75;;;22.78;67.44
57442;BME280;43284;47.042;15.498;2023-06-10T11:50:01;96724.59;;;22.84;65.43
57442;BME280;43284;47.042;15.498;2023-06-10T11:52:31;96730.78;;;22.93;66.19
57442;BME280;43284;47.042;15.498;2023-06-10T11:55:05;96719.53;;;23.08;64.30
57442;BME280;43284;47.042;15.498;2023-06-10T11:57:34;96728.22;;;23.10;64.41
57442;BME280;43284;47.042;15.498;2023-06-10T12:00:05;96725.75;;;23.24;63.80
57442;BME280;43284;47.042;15.498;2023-06-10T12:02:31;96711.25;;;23.35;63.80
57442;BME280;43284;47.042;15.498;2023-06-10T12:05:11;96714.41;;;23.55;63.02
57442;BME280;43284;47.042;15.498;2023-06-10T12:07:37;96714.91;;;23.67;61.56
57442;BME280;43284;47.042;15.498;2023-06-10T12:10:03;96705.22;;;23.74;62.13
57442;BME280;43284;47.042;15.498;2023-06-10T12:12:30;96701.25;;;23.78;61.29
57442;BME280;43284;47.042;15.498;2023-06-10T12:15:00;96698.22;;;23.90;63.45
57442;BME280;43284;47.042;15.498;2023-06-10T12:20:05;96699.34;;;24.12;64.54
57442;BME280;43284;47.042;15.498;2023-06-10T12:22:42;96692.00;;;24.14;60.90
57442;BME280;43284;47.042;15.498;2023-06-10T12:25:10;96696.41;;;23.90;59.85
57442;BME280;43284;47.042;15.498;2023-06-10T12:27:38;96699.34;;;24.12;61.65
57442;BME280;43284;47.042;15.498;2023-06-10T12:30:05;96693.53;;;24.08;61.34
57442;BME280;43284;47.042;15.498;2023-06-10T12:32:57;96694.00;;;24.12;60.06
57442;BME280;43284;47.042;15.498;2023-06-10T12:35:25;96695.31;;;24.16;58.61
57442;BME280;43284;47.042;15.498;2023-06-10T12:38:09;96699.34;;;24.12;60.57
57442;BME280;43284;47.042;15.498;2023-06-10T12:40:38;96701.03;;;24.13;61.04
57442;BME280;43284;47.042;15.498;2023-06-10T12:43:07;96697.16;;;24.23;64.10
57442;BME280;43284;47.042;15.498;2023-06-10T12:45:38;96696.81;;;24.26;64.04
57442;BME280;43284;47.042;15.498;2023-06-10T12:48:18;96698.88;;;24.08;63.02
57442;BME280;43284;47.042;15.498;2023-06-10T12:50:58;96690.91;;;23.83;64.71
57442;BME280;43284;47.042;15.498;2023-06-10T12:53:25;96689.22;;;23.82;66.36
57442;BME280;43284;47.042;15.498;2023-06-10T12:55:54;96693.72;;;23.74;65.22
57442;BME280;43284;47.042;15.498;2023-06-10T12:58:21;96688.72;;;23.62;66.24
57442;BME280;43284;47.042;15.498;2023-06-10T13:00:47;96687.56;;;23.49;66.42
57442;BME280;43284;47.042;15.498;2023-06-10T13:03:14;96689.06;;;23.43;67.14